sensor_id;sensor_type;location;lat;lon;timestamp;pressure;altitude;pressure_sealevel;temperature;humidity
21240;BME280;10778;48.962;9.018;2022-09-19T00:01:11;99161.66;;;7.04;100.00
21240;BME280;10778;48.962;9.018;2022-09-19T00:03:40;99162.75;;;7.13;100.00
21240;BME280;10778;48.962;9.018;2022-09-19T00:06:07;99170.56;;;7.01;100.00
21240;BME280;10778;48.962;9.018;2022-09-19T00:08:36;99170.63;;;6.88;100.00
21240;BME280;10778;48.962;9.018;2022-09-19T00:11:03;99181.66;;;6.80;100.00
21240;BME280;10778;48.962;9.018;2022-09-19T00:13:30;99170.66;;;6.75;100.00
21240;BME280;10778;48.962;9.018;2022-09-19T00:15:56;99169.34;;;6.69;100.00
21240;BME280;10778;48.962;9.018;2022-09-19T00:18:22;99166.13;;;6.66;100.00
21240;BME280;10778;48.962;9.018;2022-09-19T00:20:48;99158.75;;;6.60;100.00
21240;BME280;10778;48.962;9.018;2022-09-19T00:23:16;99170.84;;;6.61;100.00
21240;BME280;10778;48.962;9.018;2022-09-19T00:26:04;99175.56;;;6.55;100.00
21240;BME280;10778;48.962;9.018;2022-09-19T00:28:30;99182.50;;;6.44;100.00
21240;BME280;10778;48.962;9.018;2022-09-19T00:30:57;99178.44;;;6.39;100.00
21240;BME280;10778;48.962;9.018;2022-09-19T00:33:24;99180.34;;;6.37;100.00
21240;BME280;10778;48.962;9.018;2022-09-19T00:35:58;99179.63;;;6.35;100.00
21240;BME280;10778;48.962;9.018;2022-09-19T00:38:26;99177.97;;;6.34;100.00
21240;BME280;10778;48.962;9.018;2022-09-19T00:40:55;99177.09;;;6.34;100.00
21240;BME280;10778;48.962;9.018;2022-09-19T00:43:23;99179.94;;;6.31;100.00
21240;BME280;10778;48.962;9.018;2022-09-19T00:45:51;99179.72;;;6.34;100.00
21240;BME280;10778;48.962;9.018;2022-09-19T00:48:19;99191.34;;;6.30;100.00
21240;BME280;10778;48.962;9.018;2022-09-19T00:50:50;99185.47;;;6.26;100.00
21240;BME280;10778;48.962;9.018;2022-09-19T00:53:21;99187.47;;;6.22;100.00
21240;BME280;10778;48.962;9.018;2022-09-19T00:55:52;99205.34;;;6.16;100.00
21240;BME280;10778;48.962;9.018;2022-09-19T00:58:24;99205.56;;;6.12;100.00
21240;BME280;10778;48.962;9.018;2022-09-19T01:00:52;99207.91;;;6.04;100.00
21240;BME280;10778;48.962;9.018;2022-09-19T01:03:18;99208.00;;;6.03;100.00
21240;BME280;10778;48.962;9.018;2022-09-19T01:05:46;99210.38;;;6.06;100.00
21240;BME280;10778;48.962;9.018;2022-09-19T01:08:25;99199.84;;;5.94;100.00
21240;BME280;10778;48.962;9.018;2022-09-19T01:11:17;99200.34;;;6.00;100.00
21240;BME280;10778;48.962;9.018;2022-09-19T01:16:42;99201.28;;;5.98;100.00
21240;BME280;10778;48.962;9.018;2022-09-19T01:27:26;99209.53;;;5.79;100.00
21240;BME280;10778;48.962;9.018;2022-09-19T01:30:03;99214.75;;;5.79;100.00
21240;BME280;10778;48.962;9.018;2022-09-19T01:33:03;99216.84;;;5.74;100.00
21240;BME280;10778;48.962;9.018;2022-09-19T01:35:34;99213.72;;;5.69;100.00
21240;BME280;10778;48.962;9.018;2022-09-19T01:38:07;99211.31;;;5.66;100.00
21240;BME280;10778;48.962;9.018;2022-09-19T01:40:35;99212.06;;;5.68;100.00
21240;BME280;10778;48.962;9.018;2022-09-19T01:43:04;99207.88;;;5.65;100.00
21240;BME280;10778;48.962;9.018;2022-09-19T01:45:37;99210.38;;;5.67;100.00
21240;BME280;10778;48.962;9.018;2022-09-19T01:48:18;99211.22;;;5.67;100.00
21240;BME280;10778;48.962;9.018;2022-09-19T01:59:47;99216.84;;;5.61;100.00
21240;BME280;10778;48.962;9.018;2022-09-19T02:05:03;99217.38;;;5.53;100.00
21240;BME280;10778;48.962;9.018;2022-09-19T02:10:23;99220.78;;;5.54;100.00
21240;BME280;10778;48.962;9.018;2022-09-19T02:12:54;99225.84;;;5.57;100.00
21240;BME280;10778;48.962;9.018;2022-09-19T02:15:40;99225.00;;;5.57;100.00
21240;BME280;10778;48.962;9.018;2022-09-19T02:18:26;99218.53;;;5.62;100.00
21240;BME280;10778;48.962;9.018;2022-09-19T02:21:00;99215.06;;;5.62;100.00
21240;BME280;10778;48.962;9.018;2022-09-19T02:23:29;99228.31;;;5.59;100.00
21240;BME280;10778;48.962;9.018;2022-09-19T02:26:01;99224.47;;;5.64;100.00
21240;BME280;10778;48.962;9.018;2022-09-19T02:28:39;99234.91;;;5.64;100.00
21240;BME280;10778;48.962;9.018;2022-09-19T02:31:10;99232.31;;;5.64;100.00
21240;BME280;10778;48.962;9.018;2022-09-19T02:33:41;99225.28;;;5.65;100.00
21240;BME280;10778;48.962;9.018;2022-09-19T02:36:25;99225.28;;;5.65;100.00
21240;BME280;10778;48.962;9.018;2022-09-19T02:39:05;99224.47;;;5.64;100.00
21240;BME280;10778;48.962;9.018;2022-09-19T02:42:17;99227.72;;;5.68;100.00
21240;BME280;10778;48.962;9.018;2022-09-19T02:45:06;99232.00;;;5.69;100.00
21240;BME280;10778;48.962;9.018;2022-09-19T02:50:43;99227.50;;;5.71;100.00
21240;BME280;10778;48.962;9.018;2022-09-19T02:53:15;99230.75;;;5.75;100.00
21240;BME280;10778;48.962;9.018;2022-09-19T02:55:49;99229.59;;;5.79;100.00
21240;BME280;10778;48.962;9.018;2022-09-19T02:58:18;99230.63;;;5.76;100.00
21240;BME280;10778;48.962;9.018;2022-09-19T03:00:50;99235.75;;;5.78;100.00
21240;BME280;10778;48.962;9.018;2022-09-19T03:03:29;99240.34;;;5.87;100.00
21240;BME280;10778;48.962;9.018;2022-09-19T03:06:19;99242.56;;;6.06;100.00
21240;BME280;10778;48.962;9.018;2022-09-19T03:08:50;99250.38;;;5.93;100.00
21240;BME280;10778;48.962;9.018;2022-09-19T03:11:20;99248.59;;;5.94;100.00
21240;BME280;10778;48.962;9.018;2022-09-19T03:13:49;99254.75;;;5.93;100.00
21240;BME280;10778;48.962;9.018;2022-09-19T03:16:19;99256.94;;;5.86;100.00
21240;BME280;10778;48.962;9.018;2022-09-19T03:18:48;99249.84;;;5.88;100.00
21240;BME280;10778;48.962;9.018;2022-09-19T03:21:22;99259.34;;;5.89;100.00
21240;BME280;10778;48.962;9.018;2022-09-19T03:23:51;99273.69;;;5.96;100.00
21240;BME280;10778;48.962;9.018;2022-09-19T03:26:33;99277.34;;;6.07;100.00
21240;BME280;10778;48.962;9.018;2022-09-19T03:29:04;99273.28;;;6.03;100.00
21240;BME280;10778;48.962;9.018;2022-09-19T03:31:42;99267.53;;;6.10;100.00
21240;BME280;10778;48.962;9.018;2022-09-19T03:34:12;99270.06;;;6.12;100.00
21240;BME280;10778;48.962;9.018;2022-09-19T03:36:40;99268.25;;;6.12;100.00
21240;BME280;10778;48.962;9.018;2022-09-19T03:39:07;99274.63;;;6.21;100.00
21240;BME280;10778;48.962;9.018;2022-09-19T03:41:39;99275.69;;;6.19;100.00
21240;BME280;10778;48.962;9.018;2022-09-19T03:44:07;99277.47;;;6.18;100.00
21240;BME280;10778;48.962;9.018;2022-09-19T03:46:35;99287.59;;;6.23;100.00
21240;BME280;10778;48.962;9.018;2022-09-19T03:49:01;99281.84;;;6.31;100.00
21240;BME280;10778;48.962;9.018;2022-09-19T03:51:32;99277.44;;;6.31;100.00
21240;BME280;10778;48.962;9.018;2022-09-19T03:54:01;99272.34;;;6.30;100.00
21240;BME280;10778;48.962;9.018;2022-09-19T03:56:32;99278.94;;;6.35;100.00
21240;BME280;10778;48.962;9.018;2022-09-19T03:58:59;99286.31;;;6.42;100.00
21240;BME280;10778;48.962;9.018;2022-09-19T04:01:27;99293.00;;;6.46;100.00
21240;BME280;10778;48.962;9.018;2022-09-19T04:03:54;99288.91;;;6.54;100.00
21240;BME280;10778;48.962;9.018;2022-09-19T04:06:21;99298.66;;;6.52;100.00
21240;BME280;10778;48.962;9.018;2022-09-19T04:08:48;99302.72;;;6.57;100.00
21240;BME280;10778;48.962;9.018;2022-09-19T04:11:14;99295.81;;;6.55;100.00
21240;BME280;10778;48.962;9.018;2022-09-19T04:13:41;99300.50;;;6.63;100.00
21240;BME280;10778;48.962;9.018;2022-09-19T04:16:14;99303.75;;;6.67;100.00
21240;BME280;10778;48.962;9.018;2022-09-19T04:18:43;99302.69;;;6.69;100.00
21240;BME280;10778;48.962;9.018;2022-09-19T04:21:24;99299.75;;;6.74;100.00
21240;BME280;10778;48.962;9.018;2022-09-19T04:24:24;99309.25;;;6.75;100.00
21240;BME280;10778;48.962;9.018;2022-09-19T04:27:12;99302.03;;;6.79;100.00
21240;BME280;10778;48.962;9.018;2022-09-19T04:29:39;99300.78;;;6.85;100.00
21240;BME280;10778;48.962;9.018;2022-09-19T04:32:08;99303.66;;;6.93;100.00
21240;BME280;10778;48.962;9.018;2022-09-19T04:34:34;99300.44;;;6.89;100.00
21240;BME280;10778;48.962;9.018;2022-09-19T04:37:02;99303.28;;;6.86;100.00
21240;BME280;10778;48.962;9.018;2022-09-19T04:39:30;99297.84;;;6.89;100.00
21240;BME280;10778;48.962;9.018;2022-09-19T04:41:56;99308.16;;;6.91;100.00
21240;BME280;10778;48.962;9.018;2022-09-19T04:44:24;99312.25;;;6.95;100.00
21240;BME280;10778;48.962;9.018;2022-09-19T04:46:58;99308.47;;;6.99;100.00
21240;BME280;10778;48.962;9.018;2022-09-19T04:49:25;99307.03;;;6.95;100.00
21240;BME280;10778;48.962;9.018;2022-09-19T04:52:01;99309.53;;;6.96;100.00
21240;BME280;10778;48.962;9.018;2022-09-19T04:54:27;99309.19;;;7.01;100.00
21240;BME280;10778;48.962;9.018;2022-09-19T04:56:54;99308.16;;;7.04;100.00
21240;BME280;10778;48.962;9.018;2022-09-19T04:59:20;99295.06;;;7.04;100.00
21240;BME280;10778;48.962;9.018;2022-09-19T05:01:46;99293.28;;;7.04;100.00
21240;BME280;10778;48.962;9.018;2022-09-19T05:04:12;99294.22;;;7.03;100.00
21240;BME280;10778;48.962;9.018;2022-09-19T05:06:42;99299.22;;;7.06;100.00
21240;BME280;10778;48.962;9.018;2022-09-19T05:09:10;99296.75;;;7.05;100.00
21240;BME280;10778;48.962;9.018;2022-09-19T05:11:45;99309.38;;;7.11;100.00
21240;BME280;10778;48.962;9.018;2022-09-19T05:14:13;99322.34;;;7.13;100.00
21240;BME280;10778;48.962;9.018;2022-09-19T05:16:46;99328.72;;;7.08;100.00
21240;BME280;10778;48.962;9.018;2022-09-19T05:19:13;99324.03;;;7.38;100.00
21240;BME280;10778;48.962;9.018;2022-09-19T05:21:39;99325.47;;;7.42;100.00
21240;BME280;10778;48.962;9.018;2022-09-19T05:24:05;99326.34;;;7.30;100.00
21240;BME280;10778;48.962;9.018;2022-09-19T05:26:31;99322.63;;;7.45;100.00
21240;BME280;10778;48.962;9.018;2022-09-19T05:29:05;99330.69;;;7.42;100.00
21240;BME280;10778;48.962;9.018;2022-09-19T05:31:41;99337.72;;;7.42;100.00
21240;BME280;10778;48.962;9.018;2022-09-19T05:34:20;99333.56;;;7.39;100.00
21240;BME280;10778;48.962;9.018;2022-09-19T05:36:46;99340.06;;;7.33;100.00
21240;BME280;10778;48.962;9.018;2022-09-19T05:39:32;99337.44;;;7.33;100.00
21240;BME280;10778;48.962;9.018;2022-09-19T05:42:19;99348.78;;;7.45;100.00
21240;BME280;10778;48.962;9.018;2022-09-19T05:44:45;99340.13;;;7.45;100.00
21240;BME280;10778;48.962;9.018;2022-09-19T05:47:11;99343.41;;;7.35;100.00
21240;BME280;10778;48.962;9.018;2022-09-19T05:49:39;99342.78;;;7.56;100.00
21240;BME280;10778;48.962;9.018;2022-09-19T05:52:05;99344.41;;;7.46;100.00
21240;BME280;10778;48.962;9.018;2022-09-19T05:54:50;99355.16;;;7.54;100.00
21240;BME280;10778;48.962;9.018;2022-09-19T05:57:40;99358.94;;;7.50;100.00
21240;BME280;10778;48.962;9.018;2022-09-19T06:00:06;99354.81;;;7.59;100.00
21240;BME280;10778;48.962;9.018;2022-09-19T06:02:38;99353.53;;;7.64;100.00
21240;BME280;10778;48.962;9.018;2022-09-19T06:05:06;99357.63;;;7.80;100.00
21240;BME280;10778;48.962;9.018;2022-09-19T06:07:34;99363.84;;;7.90;100.00
21240;BME280;10778;48.962;9.018;2022-09-19T06:10:00;99358.94;;;7.86;100.00
21240;BME280;10778;48.962;9.018;2022-09-19T06:12:28;99365.78;;;8.00;100.00
21240;BME280;10778;48.962;9.018;2022-09-19T06:14:54;99373.38;;;7.91;100.00
21240;BME280;10778;48.962;9.018;2022-09-19T06:17:21;99375.19;;;7.91;100.00
21240;BME280;10778;48.962;9.018;2022-09-19T06:20:08;99379.94;;;7.97;100.00
21240;BME280;10778;48.962;9.018;2022-09-19T06:22:45;99378.66;;;8.03;100.00
21240;BME280;10778;48.962;9.018;2022-09-19T06:25:16;99381.97;;;7.93;100.00
21240;BME280;10778;48.962;9.018;2022-09-19T06:27:42;99392.00;;;8.00;100.00
21240;BME280;10778;48.962;9.018;2022-09-19T06:30:10;99390.56;;;8.07;100.00
21240;BME280;10778;48.962;9.018;2022-09-19T06:33:09;99387.41;;;8.26;100.00
21240;BME280;10778;48.962;9.018;2022-09-19T06:35:59;99395.16;;;8.28;100.00
21240;BME280;10778;48.962;9.018;2022-09-19T06:38:27;99391.84;;;8.37;100.00
21240;BME280;10778;48.962;9.018;2022-09-19T06:40:59;99399.34;;;8.30;100.00
21240;BME280;10778;48.962;9.018;2022-09-19T06:43:47;99406.63;;;8.38;100.00
21240;BME280;10778;48.962;9.018;2022-09-19T06:46:29;99406.25;;;8.31;100.00
21240;BME280;10778;48.962;9.018;2022-09-19T06:49:20;99410.78;;;8.29;100.00
21240;BME280;10778;48.962;9.018;2022-09-19T06:51:55;99410.78;;;8.29;100.00
21240;BME280;10778;48.962;9.018;2022-09-19T06:54:23;99413.16;;;8.32;100.00
21240;BME280;10778;48.962;9.018;2022-09-19T06:56:49;99423.06;;;8.40;100.00
21240;BME280;10778;48.962;9.018;2022-09-19T06:59:16;99423.69;;;8.44;100.00
21240;BME280;10778;48.962;9.018;2022-09-19T07:01:43;99420.78;;;8.35;100.00
21240;BME280;10778;48.962;9.018;2022-09-19T07:04:12;99429.13;;;8.29;100.00
21240;BME280;10778;48.962;9.018;2022-09-19T07:06:53;99424.03;;;8.39;100.00
21240;BME280;10778;48.962;9.018;2022-09-19T07:09:23;99422.84;;;8.43;100.00
21240;BME280;10778;48.962;9.018;2022-09-19T07:11:52;99432.13;;;8.47;100.00
21240;BME280;10778;48.962;9.018;2022-09-19T07:14:23;99437.13;;;8.39;100.00
21240;BME280;10778;48.962;9.018;2022-09-19T07:16:51;99429.91;;;8.54;100.00
21240;BME280;10778;48.962;9.018;2022-09-19T07:19:17;99441.28;;;8.66;100.00
21240;BME280;10778;48.962;9.018;2022-09-19T07:22:21;99430.31;;;8.72;100.00
21240;BME280;10778;48.962;9.018;2022-09-19T07:25:20;99444.50;;;8.81;100.00
21240;BME280;10778;48.962;9.018;2022-09-19T07:27:59;99438.66;;;8.77;100.00
21240;BME280;10778;48.962;9.018;2022-09-19T07:30:26;99445.31;;;8.81;100.00
21240;BME280;10778;48.962;9.018;2022-09-19T07:32:56;99451.66;;;8.79;100.00
21240;BME280;10778;48.962;9.018;2022-09-19T07:35:25;99452.75;;;8.88;100.00
21240;BME280;10778;48.962;9.018;2022-09-19T07:37:54;99449.84;;;8.79;100.00
21240;BME280;10778;48.962;9.018;2022-09-19T07:40:33;99464.19;;;8.98;100.00
21240;BME280;10778;48.962;9.018;2022-09-19T07:43:04;99463.00;;;9.02;100.00
21240;BME280;10778;48.962;9.018;2022-09-19T07:45:51;99471.84;;;9.01;100.00
21240;BME280;10778;48.962;9.018;2022-09-19T07:48:37;99468.97;;;9.04;100.00
21240;BME280;10778;48.962;9.018;2022-09-19T07:51:20;99475.28;;;9.13;100.00
21240;BME280;10778;48.962;9.018;2022-09-19T07:53:46;99483.03;;;9.26;100.00
21240;BME280;10778;48.962;9.018;2022-09-19T07:56:15;99477.69;;;9.28;100.00
21240;BME280;10778;48.962;9.018;2022-09-19T07:58:41;99479.09;;;9.20;100.00
21240;BME280;10778;48.962;9.018;2022-09-19T08:01:08;99479.81;;;9.22;100.00
21240;BME280;10778;48.962;9.018;2022-09-19T08:03:52;99487.81;;;9.21;100.00
21240;BME280;10778;48.962;9.018;2022-09-19T08:06:26;99486.97;;;9.32;100.00
21240;BME280;10778;48.962;9.018;2022-09-19T08:08:55;99491.63;;;9.51;100.00
21240;BME280;10778;48.962;9.018;2022-09-19T08:11:46;99498.41;;;9.53;100.00
21240;BME280;10778;48.962;9.018;2022-09-19T08:14:13;99496.13;;;9.72;99.38
21240;BME280;10778;48.962;9.018;2022-09-19T08:16:39;99496.19;;;9.93;99.29
21240;BME280;10778;48.962;9.018;2022-09-19T08:19:05;99495.78;;;10.09;100.00
21240;BME280;10778;48.962;9.018;2022-09-19T08:21:33;99499.03;;;10.01;97.61
21240;BME280;10778;48.962;9.018;2022-09-19T08:23:59;99504.25;;;10.13;98.45
21240;BME280;10778;48.962;9.018;2022-09-19T08:26:26;99498.53;;;10.07;97.08
21240;BME280;10778;48.962;9.018;2022-09-19T08:28:52;99503.06;;;10.05;98.71
21240;BME280;10778;48.962;9.018;2022-09-19T08:31:20;99500.06;;;10.10;96.71
21240;BME280;10778;48.962;9.018;2022-09-19T08:33:47;99499.75;;;10.03;96.54
21240;BME280;10778;48.962;9.018;2022-09-19T08:36:14;99505.44;;;10.08;96.16
21240;BME280;10778;48.962;9.018;2022-09-19T08:38:41;99511.56;;;10.09;97.35
21240;BME280;10778;48.962;9.018;2022-09-19T08:49:28;99527.78;;;10.14;95.85
21240;BME280;10778;48.962;9.018;2022-09-19T08:52:01;99524.88;;;10.29;95.30
21240;BME280;10778;48.962;9.018;2022-09-19T08:54:35;99528.09;;;10.32;95.94
21240;BME280;10778;48.962;9.018;2022-09-19T08:57:31;99518.97;;;10.36;94.73
21240;BME280;10778;48.962;9.018;2022-09-19T09:00:06;99526.28;;;10.33;94.38
21240;BME280;10778;48.962;9.018;2022-09-19T09:05:22;99515.00;;;11.27;92.14
21240;BME280;10778;48.962;9.018;2022-09-19T09:14:06;99529.13;;;11.26;88.97
21240;BME280;10778;48.962;9.018;2022-09-19T09:22:27;99528.47;;;11.34;88.29
21240;BME280;10778;48.962;9.018;2022-09-19T09:25:24;99523.09;;;11.45;90.68
21240;BME280;10778;48.962;9.018;2022-09-19T09:28:11;99531.25;;;11.42;91.73
21240;BME280;10778;48.962;9.018;2022-09-19T09:31:13;99529.66;;;11.30;91.41
21240;BME280;10778;48.962;9.018;2022-09-19T09:36:29;99531.22;;;11.32;90.02
21240;BME280;10778;48.962;9.018;2022-09-19T09:39:04;99529.63;;;11.51;88.93
21240;BME280;10778;48.962;9.018;2022-09-19T09:41:40;99532.81;;;11.45;89.58
21240;BME280;10778;48.962;9.018;2022-09-19T09:47:07;99531.22;;;11.32;88.10
21240;BME280;10778;48.962;9.018;2022-09-19T09:49:39;99533.34;;;11.38;88.08
21240;BME280;10778;48.962;9.018;2022-09-19T10:01:15;99533.91;;;11.42;89.50
21240;BME280;10778;48.962;9.018;2022-09-19T10:06:53;99522.38;;;11.43;89.08
21240;BME280;10778;48.962;9.018;2022-09-19T10:09:26;99519.03;;;11.82;88.01
21240;BME280;10778;48.962;9.018;2022-09-19T10:12:05;99522.06;;;11.77;86.97
21240;BME280;10778;48.962;9.018;2022-09-19T10:14:41;99520.22;;;12.09;86.40
21240;BME280;10778;48.962;9.018;2022-09-19T10:17:31;99532.16;;;12.13;86.41
21240;BME280;10778;48.962;9.018;2022-09-19T10:20:07;99528.00;;;12.20;86.64
21240;BME280;10778;48.962;9.018;2022-09-19T10:22:37;99523.16;;;12.26;87.09
21240;BME280;10778;48.962;9.018;2022-09-19T10:25:10;99520.22;;;12.19;87.10
21240;BME280;10778;48.962;9.018;2022-09-19T10:27:39;99519.38;;;12.18;86.17
21240;BME280;10778;48.962;9.018;2022-09-19T10:30:23;99519.25;;;12.49;83.93
21240;BME280;10778;48.962;9.018;2022-09-19T10:32:55;99512.59;;;12.55;84.40
21240;BME280;10778;48.962;9.018;2022-09-19T10:35:40;99513.06;;;12.98;83.35
21240;BME280;10778;48.962;9.018;2022-09-19T10:38:15;99517.19;;;13.48;80.72
21240;BME280;10778;48.962;9.018;2022-09-19T10:40:53;99518.47;;;13.72;80.54
21240;BME280;10778;48.962;9.018;2022-09-19T10:43:28;99524.00;;;13.03;82.36
21240;BME280;10778;48.962;9.018;2022-09-19T10:46:04;99522.31;;;13.12;82.01
21240;BME280;10778;48.962;9.018;2022-09-19T10:48:39;99522.81;;;12.88;82.61
21240;BME280;10778;48.962;9.018;2022-09-19T10:51:09;99527.75;;;13.01;83.84
21240;BME280;10778;48.962;9.018;2022-09-19T10:53:40;99521.69;;;12.90;83.37
21240;BME280;10778;48.962;9.018;2022-09-19T10:56:18;99526.28;;;12.88;84.48
21240;BME280;10778;48.962;9.018;2022-09-19T11:01:38;99532.38;;;13.36;85.04
21240;BME280;10778;48.962;9.018;2022-09-19T11:04:21;99523.53;;;12.70;84.71
21240;BME280;10778;48.962;9.018;2022-09-19T11:07:01;99530.38;;;12.53;85.24
21240;BME280;10778;48.962;9.018;2022-09-19T11:09:35;99534.25;;;12.39;84.34
21240;BME280;10778;48.962;9.018;2022-09-19T11:12:13;99535.66;;;12.43;84.55
21240;BME280;10778;48.962;9.018;2022-09-19T11:14:46;99538.81;;;12.47;87.21
21240;BME280;10778;48.962;9.018;2022-09-19T11:18:11;99536.88;;;12.49;87.95
21240;BME280;10778;48.962;9.018;2022-09-19T11:23:54;99537.28;;;12.74;84.65
21240;BME280;10778;48.962;9.018;2022-09-19T11:34:55;99528.13;;;12.68;83.35
21240;BME280;10778;48.962;9.018;2022-09-19T11:40:52;99531.69;;;13.34;82.34
21240;BME280;10778;48.962;9.018;2022-09-19T11:52:31;99520.19;;;14.10;78.08
21240;BME280;10778;48.962;9.018;2022-09-19T11:55:26;99518.16;;;14.21;78.75
21240;BME280;10778;48.962;9.018;2022-09-19T12:01:15;99505.50;;;13.97;77.65
21240;BME280;10778;48.962;9.018;2022-09-19T12:07:01;99508.69;;;14.37;78.92
21240;BME280;10778;48.962;9.018;2022-09-19T12:09:38;99503.16;;;14.48;78.53
21240;BME280;10778;48.962;9.018;2022-09-19T12:12:10;99500.31;;;14.68;77.18
21240;BME280;10778;48.962;9.018;2022-09-19T12:15:01;99503.25;;;14.39;76.74
21240;BME280;10778;48.962;9.018;2022-09-19T12:17:37;99499.81;;;14.46;78.98
21240;BME280;10778;48.962;9.018;2022-09-19T12:20:45;99492.72;;;14.29;77.54
21240;BME280;10778;48.962;9.018;2022-09-19T12:23:18;99500.50;;;14.48;78.02
21240;BME280;10778;48.962;9.018;2022-09-19T12:26:15;99493.25;;;14.32;77.15
21240;BME280;10778;48.962;9.018;2022-09-19T12:28:47;99494.69;;;14.27;78.16
21240;BME280;10778;48.962;9.018;2022-09-19T12:31:23;99502.25;;;14.21;78.39
21240;BME280;10778;48.962;9.018;2022-09-19T12:33:56;99497.66;;;14.05;78.64
21240;BME280;10778;48.962;9.018;2022-09-19T12:36:38;99491.09;;;14.10;77.97
21240;BME280;10778;48.962;9.018;2022-09-19T12:39:11;99492.34;;;14.23;77.73
21240;BME280;10778;48.962;9.018;2022-09-19T12:47:18;99473.56;;;14.71;77.02
21240;BME280;10778;48.962;9.018;2022-09-19T12:50:27;99475.81;;;14.66;76.74
21240;BME280;10778;48.962;9.018;2022-09-19T12:53:13;99467.38;;;14.89;76.23
21240;BME280;10778;48.962;9.018;2022-09-19T12:55:56;99463.84;;;14.80;74.94
21240;BME280;10778;48.962;9.018;2022-09-19T12:58:31;99466.34;;;14.63;76.37
21240;BME280;10778;48.962;9.018;2022-09-19T13:01:17;99456.97;;;14.69;74.56
21240;BME280;10778;48.962;9.018;2022-09-19T13:03:52;99461.38;;;14.60;76.88
21240;BME280;10778;48.962;9.018;2022-09-19T13:06:22;99455.25;;;14.15;77.03
21240;BME280;10778;48.962;9.018;2022-09-19T13:09:04;99456.50;;;14.47;76.54
21240;BME280;10778;48.962;9.018;2022-09-19T13:11:41;99456.19;;;14.32;76.18
21240;BME280;10778;48.962;9.018;2022-09-19T13:16:40;99452.16;;;14.46;77.80
21240;BME280;10778;48.962;9.018;2022-09-19T13:19:46;99456.63;;;14.46;75.32
21240;BME280;10778;48.962;9.018;2022-09-19T13:25:29;99448.31;;;14.14;75.61
21240;BME280;10778;48.962;9.018;2022-09-19T13:30:48;99464.66;;;13.35;79.64
21240;BME280;10778;48.962;9.018;2022-09-19T13:33:24;99473.19;;;13.29;83.22
21240;BME280;10778;48.962;9.018;2022-09-19T13:35:53;99491.44;;;12.65;87.98
21240;BME280;10778;48.962;9.018;2022-09-19T13:38:22;99501.78;;;12.19;96.30
21240;BME280;10778;48.962;9.018;2022-09-19T13:41:07;99503.75;;;11.66;100.00
21240;BME280;10778;48.962;9.018;2022-09-19T13:43:43;99510.66;;;11.16;100.00
21240;BME280;10778;48.962;9.018;2022-09-19T13:46:26;99503.53;;;11.07;100.00
21240;BME280;10778;48.962;9.018;2022-09-19T13:49:21;99490.59;;;11.25;100.00
21240;BME280;10778;48.962;9.018;2022-09-19T13:51:58;99488.69;;;11.37;100.00
21240;BME280;10778;48.962;9.018;2022-09-19T13:59:29;99472.31;;;12.04;95.53
21240;BME280;10778;48.962;9.018;2022-09-19T14:02:02;99466.88;;;11.95;98.28
21240;BME280;10778;48.962;9.018;2022-09-19T14:10:37;99467.28;;;12.01;100.00
21240;BME280;10778;48.962;9.018;2022-09-19T14:24:11;99469.09;;;13.35;92.50
21240;BME280;10778;48.962;9.018;2022-09-19T14:30:04;99472.06;;;14.50;89.85
21240;BME280;10778;48.962;9.018;2022-09-19T14:32:53;99478.72;;;15.07;88.34
21240;BME280;10778;48.962;9.018;2022-09-19T14:35:47;99467.28;;;14.72;91.92
21240;BME280;10778;48.962;9.018;2022-09-19T14:41:40;99452.38;;;15.06;84.17
21240;BME280;10778;48.962;9.018;2022-09-19T14:47:27;99459.03;;;15.10;85.78
21240;BME280;10778;48.962;9.018;2022-09-19T14:50:12;99455.66;;;15.00;80.78
21240;BME280;10778;48.962;9.018;2022-09-19T14:52:41;99452.28;;;15.16;84.33
21240;BME280;10778;48.962;9.018;2022-09-19T14:55:14;99462.69;;;15.52;79.21
21240;BME280;10778;48.962;9.018;2022-09-19T14:57:48;99453.22;;;15.49;76.11
21240;BME280;10778;48.962;9.018;2022-09-19T15:02:49;99463.50;;;14.57;81.07
21240;BME280;10778;48.962;9.018;2022-09-19T15:05:22;99462.66;;;14.30;83.00
21240;BME280;10778;48.962;9.018;2022-09-19T15:07:51;99463.72;;;14.01;82.78
21240;BME280;10778;48.962;9.018;2022-09-19T15:13:20;99471.66;;;13.27;87.46
21240;BME280;10778;48.962;9.018;2022-09-19T15:15:53;99475.72;;;12.73;90.53
21240;BME280;10778;48.962;9.018;2022-09-19T15:18:23;99469.13;;;12.30;91.31
21240;BME280;10778;48.962;9.018;2022-09-19T15:20:56;99466.91;;;12.35;91.02
21240;BME280;10778;48.962;9.018;2022-09-19T15:23:24;99468.16;;;12.31;93.86
21240;BME280;10778;48.962;9.018;2022-09-19T15:26:01;99468.97;;;12.51;93.10
21240;BME280;10778;48.962;9.018;2022-09-19T15:28:30;99464.41;;;12.43;92.74
21240;BME280;10778;48.962;9.018;2022-09-19T15:31:16;99463.81;;;12.49;88.16
21240;BME280;10778;48.962;9.018;2022-09-19T15:33:44;99473.25;;;12.62;90.21
21240;BME280;10778;48.962;9.018;2022-09-19T15:36:14;99474.00;;;12.34;91.05
21240;BME280;10778;48.962;9.018;2022-09-19T15:38:43;99472.19;;;12.35;91.02
21240;BME280;10778;48.962;9.018;2022-09-19T15:41:10;99477.69;;;12.61;89.68
21240;BME280;10778;48.962;9.018;2022-09-19T15:43:44;99473.03;;;12.35;91.36
21240;BME280;10778;48.962;9.018;2022-09-19T15:48:58;99479.78;;;11.99;91.43
21240;BME280;10778;48.962;9.018;2022-09-19T15:51:27;99485.50;;;12.14;90.24
21240;BME280;10778;48.962;9.018;2022-09-19T15:53:54;99486.31;;;11.85;91.74
21240;BME280;10778;48.962;9.018;2022-09-19T15:56:23;99485.16;;;11.77;89.24
21240;BME280;10778;48.962;9.018;2022-09-19T15:58:55;99485.44;;;11.74;91.56
21240;BME280;10778;48.962;9.018;2022-09-19T16:01:27;99471.41;;;11.64;90.30
21240;BME280;10778;48.962;9.018;2022-09-19T16:06:32;99472.09;;;11.56;91.11
21240;BME280;10778;48.962;9.018;2022-09-19T16:09:20;99462.97;;;11.70;91.42
21240;BME280;10778;48.962;9.018;2022-09-19T16:11:55;99459.25;;;11.73;91.39
21240;BME280;10778;48.962;9.018;2022-09-19T16:14:23;99460.34;;;11.80;86.87
21240;BME280;10778;48.962;9.018;2022-09-19T16:16:52;99464.09;;;11.87;88.66